Time;durP1;ratioP1;P1;durP2;ratioP2;P2;SDS_P1;SDS_P2;PMS_P1;PMS_P2;Temp;Humidity;BMP_temperature;BMP_pressure;BME280_temperature;BME280_humidity;BME280_pressure;Samples;Min_cycle;Max_cycle;Signal;HPM_P1;HPM_P2
2023/09/30 00:01:21;;;;;;;0.10;0.10;;;12.00;99.90;;;;;;5090978;28;20050;-75
2023/09/30 00:04:08;;;;;;;5.57;5.28;;;11.90;99.90;;;;;;5109374;28;20059;-76
2023/09/30 00:06:37;;;;;;;0.17;0.17;;;11.90;99.90;;;;;;5102930;28;20359;-75
2023/09/30 00:09:05;;;;;;;0.10;0.10;;;11.90;99.90;;;;;;5093007;28;20205;-75
2023/09/30 00:11:31;;;;;;;0.28;0.28;;;11.80;99.90;;;;;;5087723;28;20513;-75
2023/09/30 00:13:56;;;;;;;0.08;0.08;;;11.80;99.90;;;;;;5089804;28;20042;-75
2023/09/30 00:16:22;;;;;;;0.10;0.10;;;11.60;99.90;;;;;;5087964;28;20111;-75
2023/09/30 00:18:48;;;;;;;0.40;0.40;;;11.60;99.90;;;;;;5090351;28;20024;-75
2023/09/30 00:21:17;;;;;;;0.10;0.10;;;11.60;99.90;;;;;;5090083;28;20403;-75
2023/09/30 00:23:44;;;;;;;0.10;0.10;;;11.60;99.90;;;;;;5089198;28;20030;-75
2023/09/30 00:26:09;;;;;;;0.10;0.10;;;11.60;99.90;;;;;;5089778;28;20024;-75
2023/09/30 00:28:37;;;;;;;0.00;0.00;;;11.50;99.90;;;;;;5091818;28;20036;-75
2023/09/30 00:31:09;;;;;;;0.10;0.10;;;11.50;99.90;;;;;;5092077;28;20102;-76
2023/09/30 00:33:37;;;;;;;0.00;0.00;;;11.50;99.90;;;;;;5090335;28;20019;-75
2023/09/30 00:36:12;;;;;;;0.00;0.00;;;11.50;99.90;;;;;;5089811;28;20037;-75
2023/09/30 00:38:39;;;;;;;0.05;0.05;;;11.40;99.90;;;;;;5094392;28;20959;-75
2023/09/30 00:41:07;;;;;;;0.00;0.00;;;11.40;99.90;;;;;;5070899;28;20020;-77
2023/09/30 00:43:33;;;;;;;0.10;0.10;;;11.40;99.90;;;;;;5093213;28;20232;-76
2023/09/30 00:46:10;;;;;;;0.00;0.00;;;11.40;99.90;;;;;;5098597;28;20543;-77
2023/09/30 00:48:59;;;;;;;2.45;1.75;;;11.40;99.90;;;;;;5095354;28;20055;-76
2023/09/30 00:51:26;;;;;;;0.08;0.08;;;11.50;99.90;;;;;;5046855;28;20570;-77
2023/09/30 00:53:54;;;;;;;0.00;0.00;;;11.50;99.90;;;;;;5044959;28;20033;-77
2023/09/30 00:56:25;;;;;;;1.05;1.05;;;11.40;99.90;;;;;;5028614;28;20032;-76
2023/09/30 00:58:59;;;;;;;0.00;0.00;;;11.50;99.90;;;;;;5054221;28;20278;-76
2023/09/30 01:01:26;;;;;;;0.10;0.10;;;11.50;99.90;;;;;;5032685;28;20040;-76
2023/09/30 01:03:55;;;;;;;0.00;0.00;;;11.40;99.90;;;;;;5049355;28;20037;-77
2023/09/30 01:06:22;;;;;;;0.00;0.00;;;11.40;99.90;;;;;;5045774;28;20464;-76
2023/09/30 01:08:49;;;;;;;0.13;0.13;;;11.30;99.90;;;;;;5026572;28;20037;-76
2023/09/30 01:11:26;;;;;;;0.10;0.10;;;11.40;99.90;;;;;;5035600;28;20498;-77
2023/09/30 01:13:58;;;;;;;0.00;0.00;;;11.40;99.90;;;;;;5055951;28;20037;-77
2023/09/30 01:16:34;;;;;;;0.43;0.43;;;11.70;99.90;;;;;;5038846;28;20061;-76
2023/09/30 01:19:02;;;;;;;0.00;0.00;;;11.40;99.90;;;;;;5041217;28;20025;-76
2023/09/30 01:21:48;;;;;;;0.10;0.10;;;11.30;99.90;;;;;;5063065;28;20415;-76
2023/09/30 01:24:26;;;;;;;0.10;0.10;;;11.30;99.90;;;;;;5099503;28;20282;-76
2023/09/30 01:26:54;;;;;;;0.00;0.00;;;11.90;99.90;;;;;;5099163;28;20027;-76
2023/09/30 01:29:25;;;;;;;0.10;0.10;;;11.30;99.90;;;;;;5081918;28;20060;-76
2023/09/30 01:31:57;;;;;;;0.10;0.10;;;11.30;99.90;;;;;;5097935;28;20048;-76
2023/09/30 01:34:27;;;;;;;0.00;0.00;;;11.30;99.90;;;;;;5101333;28;20054;-76
2023/09/30 01:36:54;;;;;;;0.08;0.08;;;11.20;99.90;;;;;;5098787;28;20034;-76
2023/09/30 01:39:23;;;;;;;0.00;0.00;;;11.20;99.90;;;;;;5097545;28;20034;-77
2023/09/30 01:42:14;;;;;;;0.03;0.03;;;11.10;99.90;;;;;;5097165;28;20131;-76
2023/09/30 01:45:03;;;;;;;0.10;0.10;;;11.00;99.90;;;;;;5093601;28;20020;-75
2023/09/30 01:47:28;;;;;;;0.00;0.00;;;10.90;99.90;;;;;;5101282;28;20048;-76
2023/09/30 01:49:57;;;;;;;0.00;0.00;;;10.90;99.90;;;;;;5103250;28;20675;-76
2023/09/30 01:52:30;;;;;;;12.77;11.70;;;10.80;99.90;;;;;;5081382;28;20707;-76
2023/09/30 01:55:00;;;;;;;0.10;0.10;;;10.80;99.90;;;;;;5099811;28;20020;-76
2023/09/30 01:57:33;;;;;;;36.70;16.35;;;10.80;99.90;;;;;;5099645;28;20100;-77
2023/09/30 02:00:23;;;;;;;0.03;0.03;;;10.90;99.90;;;;;;5099266;28;20316;-77
2023/09/30 02:02:48;;;;;;;0.70;0.70;;;10.80;99.90;;;;;;5071422;28;20036;-76
2023/09/30 02:05:20;;;;;;;0.08;0.08;;;10.70;99.90;;;;;;5071696;28;20040;-76
2023/09/30 02:07:45;;;;;;;0.00;0.00;;;10.70;99.90;;;;;;5076830;28;20048;-75
2023/09/30 02:10:11;;;;;;;0.00;0.00;;;10.60;99.90;;;;;;5078483;28;20082;-75
2023/09/30 02:12:37;;;;;;;0.00;0.00;;;10.60;99.90;;;;;;5077499;28;20067;-76
2023/09/30 02:15:20;;;;;;;0.00;0.00;;;10.70;99.90;;;;;;5060802;28;20047;-76
2023/09/30 02:17:48;;;;;;;0.05;0.05;;;10.60;99.90;;;;;;5061906;28;20416;-76
2023/09/30 02:20:18;;;;;;;0.00;0.00;;;10.70;99.90;;;;;;5078937;28;20878;-76
2023/09/30 02:22:47;;;;;;;0.00;0.00;;;10.40;99.90;;;;;;5077328;28;20043;-77
2023/09/30 02:25:16;;;;;;;0.03;0.03;;;10.50;99.90;;;;;;5076704;28;20108;-77
2023/09/30 02:27:51;;;;;;;1.10;1.10;;;12.50;99.90;;;;;;5074320;28;20120;-76
2023/09/30 02:30:18;;;;;;;0.00;0.00;;;10.40;99.90;;;;;;5046271;28;20028;-77
2023/09/30 02:32:46;;;;;;;0.00;0.00;;;10.40;99.90;;;;;;5078386;28;20025;-76
2023/09/30 02:35:15;;;;;;;0.00;0.00;;;10.50;99.90;;;;;;5083920;28;20042;-77
2023/09/30 02:37:41;;;;;;;0.00;0.00;;;10.50;99.90;;;;;;5086271;28;20028;-76
2023/09/30 02:40:10;;;;;;;0.00;0.00;;;10.50;99.90;;;;;;5102741;28;20044;-76
2023/09/30 02:42:40;;;;;;;0.00;0.00;;;10.50;99.90;;;;;;5060991;28;20043;-76
2023/09/30 02:45:08;;;;;;;0.00;0.00;;;10.50;99.90;;;;;;5101895;28;20478;-76
2023/09/30 02:47:39;;;;;;;0.10;0.10;;;10.50;99.90;;;;;;5100601;28;20028;-78
2023/09/30 02:50:15;;;;;;;0.10;0.10;;;10.50;99.90;;;;;;5103819;28;20028;-77
2023/09/30 02:52:41;;;;;;;0.98;0.98;;;10.50;99.90;;;;;;5101946;28;20099;-77
2023/09/30 02:55:17;;;;;;;0.00;0.00;;;10.50;99.90;;;;;;5101145;28;20020;-76
2023/09/30 02:57:43;;;;;;;0.03;0.03;;;10.60;99.90;;;;;;5097709;28;20081;-76
2023/09/30 03:00:32;;;;;;;0.28;0.28;;;10.50;99.90;;;;;;5095568;28;20020;-76
2023/09/30 03:03:01;;;;;;;0.32;0.32;;;10.50;99.90;;;;;;5080359;28;20016;-76
2023/09/30 03:05:30;;;;;;;0.00;0.00;;;10.40;99.90;;;;;;5096984;28;20059;-76
2023/09/30 03:07:57;;;;;;;0.10;0.10;;;10.40;99.90;;;;;;5073282;28;20028;-76
2023/09/30 03:10:27;;;;;;;0.10;0.10;;;10.40;99.90;;;;;;5096456;28;20112;-76
2023/09/30 03:12:54;;;;;;;0.00;0.00;;;10.30;99.90;;;;;;5101716;28;20108;-76
2023/09/30 03:15:19;;;;;;;1.10;1.10;;;10.20;99.90;;;;;;5101304;28;20498;-76
2023/09/30 03:17:53;;;;;;;0.08;0.08;;;10.20;99.90;;;;;;5104900;28;20023;-76
2023/09/30 03:20:20;;;;;;;0.10;0.10;;;10.10;99.90;;;;;;5076292;28;20131;-76
2023/09/30 03:22:48;;;;;;;0.00;0.00;;;10.10;99.90;;;;;;5087551;28;20024;-76
2023/09/30 03:25:20;;;;;;;2.15;2.05;;;9.10;99.90;;;;;;5107808;28;20261;-76
2023/09/30 03:27:52;;;;;;;0.00;0.00;;;10.10;99.90;;;;;;5106055;28;20040;-78
2023/09/30 03:30:19;;;;;;;0.80;0.80;;;10.10;99.90;;;;;;5107217;28;20065;-77
2023/09/30 03:32:46;;;;;;;0.00;0.00;;;10.50;99.90;;;;;;5105153;28;20040;-77
2023/09/30 03:35:17;;;;;;;0.00;0.00;;;10.10;99.90;;;;;;5079582;28;20039;-76
2023/09/30 03:37:44;;;;;;;0.00;0.00;;;10.00;99.90;;;;;;5101489;28;20017;-77
2023/09/30 03:40:19;;;;;;;0.00;0.00;;;10.10;99.90;;;;;;5101510;28;20566;-76
2023/09/30 03:42:49;;;;;;;6.15;5.88;;;10.10;99.90;;;;;;5083438;28;20039;-76
2023/09/30 03:45:15;;;;;;;0.00;0.00;;;10.10;99.90;;;;;;5092631;28;20432;-77
2023/09/30 03:47:43;;;;;;;0.00;0.00;;;10.10;99.90;;;;;;5090867;28;20227;-76
2023/09/30 03:50:13;;;;;;;0.10;0.10;;;10.30;99.90;;;;;;5072227;28;20051;-76
2023/09/30 03:52:43;;;;;;;0.00;0.00;;;11.60;99.90;;;;;;5091600;28;20016;-76
2023/09/30 03:55:15;;;;;;;0.00;0.00;;;10.20;99.90;;;;;;5090779;28;20016;-76
2023/09/30 03:57:41;;;;;;;0.00;0.00;;;10.30;99.90;;;;;;5089430;28;20020;-78
2023/09/30 04:00:11;;;;;;;0.00;0.00;;;10.30;99.90;;;;;;5094983;28;20021;-76
2023/09/30 04:02:37;;;;;;;0.10;0.10;;;10.30;99.90;;;;;;5100025;28;20039;-76
2023/09/30 04:05:11;;;;;;;0.00;0.00;;;10.30;99.90;;;;;;5104355;28;20328;-76
2023/09/30 04:07:38;;;;;;;2.65;2.50;;;10.40;99.90;;;;;;5095234;28;20491;-77
2023/09/30 04:10:05;;;;;;;5.20;4.85;;;10.60;99.90;;;;;;5071873;28;20272;-76
2023/09/30 04:12:32;;;;;;;0.32;0.32;;;10.80;99.90;;;;;;5090189;28;20020;-76
2023/09/30 04:14:58;;;;;;;0.47;0.47;;;10.70;99.90;;;;;;5089009;28;20105;-76
2023/09/30 04:17:27;;;;;;;0.00;0.00;;;10.70;99.90;;;;;;5075922;28;20035;-77
2023/09/30 04:19:54;;;;;;;0.10;0.10;;;10.40;99.90;;;;;;5081679;28;20051;-76
2023/09/30 04:22:25;;;;;;;0.08;0.08;;;10.30;99.90;;;;;;5098057;28;20474;-76
2023/09/30 04:24:51;;;;;;;0.00;0.00;;;10.30;99.90;;;;;;5094197;28;20503;-77
2023/09/30 04:27:17;;;;;;;0.10;0.10;;;10.30;99.90;;;;;;5098036;28;20340;-76
2023/09/30 04:29:50;;;;;;;0.00;0.00;;;10.20;99.90;;;;;;5089900;28;20103;-76
2023/09/30 04:32:17;;;;;;;0.10;0.10;;;10.20;99.90;;;;;;5100492;28;20028;-76
2023/09/30 04:34:46;;;;;;;0.00;0.00;;;10.10;99.90;;;;;;5098666;28;20020;-77
2023/09/30 04:37:15;;;;;;;0.10;0.10;;;10.10;99.90;;;;;;5096216;28;20039;-76
2023/09/30 04:39:43;;;;;;;0.00;0.00;;;10.00;99.90;;;;;;5080396;28;20023;-76
2023/09/30 04:42:11;;;;;;;0.00;0.00;;;10.00;99.90;;;;;;5097517;28;20561;-76
2023/09/30 04:44:38;;;;;;;0.00;0.00;;;10.00;99.90;;;;;;5079584;28;20041;-76
2023/09/30 04:47:05;;;;;;;0.10;0.10;;;10.00;99.90;;;;;;5096369;28;20212;-76
2023/09/30 04:49:31;;;;;;;0.70;0.70;;;10.00;99.90;;;;;;5095191;28;20053;-77
2023/09/30 04:51:57;;;;;;;0.10;0.10;;;10.10;99.90;;;;;;5076985;28;20020;-77
2023/09/30 04:54:23;;;;;;;0.00;0.00;;;10.50;99.90;;;;;;5096818;28;20031;-76
2023/09/30 04:56:51;;;;;;;0.00;0.00;;;10.00;99.90;;;;;;5097246;28;20043;-77
2023/09/30 04:59:16;;;;;;;0.00;0.00;;;10.00;99.90;;;;;;5079475;28;20040;-77
2023/09/30 05:01:42;;;;;;;0.00;0.00;;;9.90;99.90;;;;;;5078325;28;20031;-76
2023/09/30 05:04:09;;;;;;;0.10;0.10;;;9.90;99.90;;;;;;5076720;28;20347;-76
2023/09/30 05:06:35;;;;;;;0.10;0.10;;;9.90;99.90;;;;;;5074511;28;20017;-76
2023/09/30 05:09:00;;;;;;;0.00;0.00;;;9.90;99.90;;;;;;5094670;28;20097;-76
2023/09/30 05:11:26;;;;;;;0.00;0.00;;;9.80;99.90;;;;;;5098893;28;20525;-76
2023/09/30 05:13:54;;;;;;;0.00;0.00;;;9.80;99.90;;;;;;5094804;28;20137;-76
2023/09/30 05:16:23;;;;;;;0.00;0.00;;;9.80;99.90;;;;;;5099478;28;20059;-76
2023/09/30 05:18:48;;;;;;;0.00;0.00;;;7.90;99.90;;;;;;5099504;28;20017;-75
2023/09/30 05:21:15;;;;;;;0.00;0.00;;;;;;;;;;5100520;28;20025;-76
2023/09/30 05:23:46;;;;;;;3.03;2.92;;;9.60;99.90;;;;;;5101965;28;20074;-76
2023/09/30 05:26:12;;;;;;;0.40;0.40;;;9.70;99.90;;;;;;5098418;28;20331;-76
2023/09/30 05:28:42;;;;;;;0.00;0.00;;;;;;;;;;5098423;28;20299;-76
2023/09/30 05:31:09;;;;;;;0.00;0.00;;;9.70;99.90;;;;;;5074380;28;20336;-76
2023/09/30 05:33:36;;;;;;;0.10;0.10;;;9.70;99.90;;;;;;5071082;28;20044;-76
2023/09/30 05:36:08;;;;;;;0.00;0.00;;;9.80;99.90;;;;;;5093666;28;20021;-76
2023/09/30 05:38:47;;;;;;;0.00;0.00;;;9.80;99.90;;;;;;5093293;28;20482;-76
2023/09/30 05:41:15;;;;;;;0.08;0.08;;;9.90;99.90;;;;;;5088778;28;20637;-76
2023/09/30 05:43:43;;;;;;;0.03;0.03;;;9.90;99.90;;;;;;5068807;28;20118;-76
2023/09/30 05:46:09;;;;;;;95.93;18.80;;;10.00;99.90;;;;;;5087480;28;20044;-76
2023/09/30 05:48:36;;;;;;;0.10;0.10;;;10.10;99.90;;;;;;5086725;28;20100;-76
2023/09/30 05:51:02;;;;;;;0.03;0.03;;;10.10;99.90;;;;;;5087236;28;20333;-76
2023/09/30 05:53:29;;;;;;;0.00;0.00;;;9.10;99.90;;;;;;5095046;28;20044;-76
2023/09/30 05:55:55;;;;;;;1.52;1.48;;;10.30;99.90;;;;;;5100656;28;20320;-76
2023/09/30 05:58:23;;;;;;;2.42;2.33;;;10.40;99.90;;;;;;5093653;28;20028;-76
2023/09/30 06:00:50;;;;;;;0.00;0.00;;;10.50;99.90;;;;;;5095009;28;20050;-76
2023/09/30 06:03:16;;;;;;;0.00;0.00;;;10.50;99.90;;;;;;5097595;28;20019;-76
2023/09/30 06:05:43;;;;;;;0.28;0.28;;;11.20;99.90;;;;;;5098977;28;20081;-76
2023/09/30 06:08:13;;;;;;;0.00;0.00;;;10.70;99.90;;;;;;5088304;28;20031;-76
2023/09/30 06:10:44;;;;;;;0.10;0.10;;;10.80;99.90;;;;;;5068268;28;20535;-76
2023/09/30 06:13:13;;;;;;;0.10;0.10;;;10.90;99.90;;;;;;5085679;28;20115;-77
2023/09/30 06:15:43;;;;;;;0.10;0.10;;;10.90;99.90;;;;;;5085937;28;20016;-76
2023/09/30 06:18:12;;;;;;;0.10;0.10;;;10.90;99.90;;;;;;5067732;28;20034;-76
2023/09/30 06:20:38;;;;;;;0.10;0.10;;;11.00;99.90;;;;;;5085568;28;20020;-76
2023/09/30 06:23:04;;;;;;;0.55;0.55;;;11.20;99.90;;;;;;5086461;28;20508;-76
2023/09/30 06:25:32;;;;;;;0.15;0.15;;;11.20;99.90;;;;;;5085139;28;20276;-76
2023/09/30 06:27:58;;;;;;;0.10;0.10;;;11.40;99.90;;;;;;5085146;28;20036;-76
2023/09/30 06:30:29;;;;;;;0.10;0.10;;;12.00;99.90;;;;;;5086353;28;20164;-76
2023/09/30 06:33:00;;;;;;;0.08;0.08;;;11.60;99.90;;;;;;5066429;28;20031;-77
2023/09/30 06:35:27;;;;;;;0.00;0.00;;;11.80;99.90;;;;;;5085057;28;20089;-76
2023/09/30 06:37:53;;;;;;;0.10;0.10;;;11.90;99.90;;;;;;5084635;28;20031;-76
2023/09/30 06:40:22;;;;;;;0.10;0.10;;;12.00;99.90;;;;;;5084154;28;20024;-76
2023/09/30 06:42:48;;;;;;;0.10;0.10;;;12.20;99.90;;;;;;5083570;28;20288;-76
2023/09/30 06:45:15;;;;;;;0.10;0.10;;;12.30;99.90;;;;;;5087708;28;20024;-77
2023/09/30 06:47:41;;;;;;;0.25;0.25;;;12.90;99.90;;;;;;5054768;28;20364;-76
2023/09/30 06:50:16;;;;;;;0.17;0.17;;;12.50;99.90;;;;;;5070812;28;20070;-77
2023/09/30 06:52:51;;;;;;;4.68;4.47;;;12.70;99.90;;;;;;5074503;28;20024;-75
2023/09/30 06:55:18;;;;;;;0.30;0.30;;;13.10;99.90;;;;;;5089236;28;20091;-76
2023/09/30 06:57:45;;;;;;;0.75;0.75;;;12.80;99.90;;;;;;5087519;28;20054;-79
2023/09/30 07:00:13;;;;;;;0.13;0.13;;;12.80;99.90;;;;;;5086636;28;20221;-76
2023/09/30 07:02:40;;;;;;;0.73;0.73;;;12.80;99.90;;;;;;5068884;28;20537;-76
2023/09/30 07:05:12;;;;;;;0.38;0.38;;;13.10;99.90;;;;;;5086522;28;20028;-77
2023/09/30 07:07:39;;;;;;;1.85;1.75;;;13.10;99.90;;;;;;5087318;28;20016;-76
2023/09/30 07:10:08;;;;;;;1.05;1.05;;;12.00;99.90;;;;;;5066723;28;20044;-77
2023/09/30 07:12:35;;;;;;;3.25;3.03;;;13.40;99.90;;;;;;5085650;28;20282;-76
2023/09/30 07:15:05;;;;;;;0.10;0.10;;;13.50;99.90;;;;;;5086255;28;20115;-77
2023/09/30 07:17:32;;;;;;;0.10;0.10;;;13.80;99.90;;;;;;5068445;28;20293;-76
2023/09/30 07:19:59;;;;;;;1.35;1.27;;;13.60;99.90;;;;;;5088171;28;20028;-77
2023/09/30 07:22:25;;;;;;;2.72;1.38;;;13.80;99.90;;;;;;5089517;28;20102;-76
2023/09/30 07:24:52;;;;;;;0.10;0.10;;;13.80;99.90;;;;;;5087516;28;20028;-76
2023/09/30 07:27:18;;;;;;;0.10;0.10;;;13.70;99.90;;;;;;5068331;28;20121;-77
2023/09/30 07:29:44;;;;;;;0.10;0.10;;;14.50;99.90;;;;;;5089351;28;20406;-76
2023/09/30 07:32:11;;;;;;;0.10;0.10;;;;;;;;;;5085898;28;20024;-76
2023/09/30 07:34:38;;;;;;;0.10;0.10;;;14.30;99.90;;;;;;5085333;28;20034;-77
2023/09/30 07:37:04;;;;;;;0.10;0.10;;;14.50;99.90;;;;;;5085833;28;20170;-78
2023/09/30 07:39:31;;;;;;;1.40;1.38;;;14.80;99.90;;;;;;5086237;28;20016;-76
2023/09/30 07:41:57;;;;;;;0.10;0.10;;;15.30;99.90;;;;;;5085538;28;20024;-77
2023/09/30 07:44:23;;;;;;;0.10;0.10;;;15.20;99.90;;;;;;5082731;28;20020;-76
2023/09/30 07:46:48;;;;;;;0.40;0.40;;;15.10;99.90;;;;;;5087637;28;20035;-76
2023/09/30 07:49:14;;;;;;;0.00;0.00;;;14.80;99.90;;;;;;5091400;28;20151;-77
2023/09/30 07:51:41;;;;;;;0.10;0.10;;;14.90;99.90;;;;;;5093798;28;20175;-77
2023/09/30 07:54:07;;;;;;;0.10;0.10;;;14.90;99.90;;;;;;5072181;28;20024;-76
2023/09/30 07:56:37;;;;;;;0.15;0.15;;;15.10;99.90;;;;;;5093341;28;20062;-79
2023/09/30 07:59:13;;;;;;;0.10;0.10;;;15.20;99.90;;;;;;5091517;28;20494;-77
2023/09/30 08:01:39;;;;;;;0.57;0.57;;;15.30;99.90;;;;;;5075549;28;20086;-80
2023/09/30 08:04:06;;;;;;;0.40;0.40;;;15.50;99.90;;;;;;5090612;28;20344;-77
2023/09/30 08:06:31;;;;;;;0.05;0.05;;;13.10;99.90;;;;;;5097475;28;20099;-82
2023/09/30 08:08:57;;;;;;;1.30;1.30;;;15.70;99.90;;;;;;5068778;28;20060;-76
2023/09/30 08:11:27;;;;;;;0.10;0.10;;;15.70;99.90;;;;;;5068437;28;20095;-76
2023/09/30 08:13:53;;;;;;;0.10;0.10;;;16.00;99.90;;;;;;5085479;28;20095;-76
2023/09/30 08:16:19;;;;;;;0.10;0.10;;;16.10;99.90;;;;;;5087120;28;20349;-76
2023/09/30 08:18:45;;;;;;;0.00;0.00;;;16.10;99.90;;;;;;5084043;28;20017;-76
2023/09/30 08:21:11;;;;;;;0.20;0.20;;;16.40;99.90;;;;;;5081659;28;20429;-76
2023/09/30 08:23:40;;;;;;;0.82;0.82;;;16.70;99.90;;;;;;5086619;28;20046;-79
2023/09/30 08:26:06;;;;;;;0.00;0.00;;;16.70;99.90;;;;;;5084714;28;20028;-75
2023/09/30 08:28:32;;;;;;;0.00;0.00;;;16.90;99.90;;;;;;5083364;28;20283;-75
2023/09/30 08:31:05;;;;;;;1.65;1.55;;;17.00;99.90;;;;;;5066247;28;20020;-75
2023/09/30 08:33:32;;;;;;;;;;;16.90;99.90;;;;;;5085065;28;20020;-80
2023/09/30 08:36:08;;;;;;;0.10;0.10;;;17.30;99.90;;;;;;5088224;28;19908;-83
2023/09/30 08:38:43;;;;;;;1.05;0.98;;;17.40;99.90;;;;;;5091425;28;20033;-81
2023/09/30 08:41:10;;;;;;;0.00;0.00;;;17.60;99.90;;;;;;5067212;28;20024;-76
2023/09/30 08:43:40;;;;;;;1.45;1.00;;;17.80;99.90;;;;;;5068723;28;20023;-79
2023/09/30 08:46:06;;;;;;;0.10;0.10;;;17.80;99.90;;;;;;5071662;28;20099;-80
2023/09/30 08:48:33;;;;;;;0.00;0.00;;;17.90;99.90;;;;;;5085200;28;20031;-78
2023/09/30 08:51:00;;;;;;;0.10;0.10;;;16.70;99.90;;;;;;5092353;28;20497;-82
2023/09/30 08:53:31;;;;;;;0.20;0.20;;;18.20;99.90;;;;;;5072575;28;20077;-77
2023/09/30 08:56:00;;;;;;;0.00;0.00;;;17.70;99.90;;;;;;5085527;28;20030;-75
2023/09/30 08:58:29;;;;;;;0.43;0.43;;;18.30;99.90;;;;;;5087944;28;20122;-79
2023/09/30 09:00:56;;;;;;;0.10;0.10;;;18.30;99.90;;;;;;5069666;28;20082;-76
2023/09/30 09:03:23;;;;;;;8.05;1.73;;;18.30;99.90;;;;;;5087473;28;20024;-80
2023/09/30 09:06:00;;;;;;;0.00;0.00;;;19.90;99.90;;;;;;5086742;28;20027;-75
2023/09/30 09:08:26;;;;;;;0.75;0.63;;;18.60;99.90;;;;;;5083123;28;20621;-85
2023/09/30 09:10:57;;;;;;;0.20;0.20;;;18.60;99.90;;;;;;5084599;28;20358;-78
2023/09/30 09:13:25;;;;;;;0.10;0.10;;;18.70;99.90;;;;;;5081247;28;20031;-77
2023/09/30 09:16:07;;;;;;;0.10;0.10;;;18.60;99.90;;;;;;5063524;28;20614;-80
2023/09/30 09:18:34;;;;;;;0.00;0.00;;;18.80;99.90;;;;;;5080290;28;20052;-76
2023/09/30 09:21:11;;;;;;;0.10;0.10;;;18.60;99.90;;;;;;5063997;28;20582;-81
2023/09/30 09:23:42;;;;;;;0.55;0.55;;;19.10;99.90;;;;;;5081459;28;20115;-77
2023/09/30 09:26:28;;;;;;;0.20;0.20;;;19.30;99.90;;;;;;5045694;28;20023;-79
2023/09/30 09:29:04;;;;;;;0.20;0.20;;;19.50;99.90;;;;;;5080972;28;20153;-77
2023/09/30 09:31:36;;;;;;;0.55;0.55;;;19.70;99.90;;;;;;5062497;28;20025;-82
2023/09/30 09:34:04;;;;;;;7.20;5.45;;;19.80;99.90;;;;;;5082948;28;20039;-77
2023/09/30 09:36:40;;;;;;;0.10;0.10;;;19.70;99.90;;;;;;5064026;28;20650;-77
2023/09/30 09:39:07;;;;;;;0.10;0.10;;;19.60;99.90;;;;;;5081601;28;20036;-79
2023/09/30 09:41:32;;;;;;;0.10;0.10;;;19.70;99.90;;;;;;5082366;28;20016;-81
2023/09/30 09:43:59;;;;;;;0.00;0.00;;;19.90;99.90;;;;;;5064811;28;20090;-76
2023/09/30 09:46:27;;;;;;;0.82;0.82;;;20.00;99.90;;;;;;5085798;28;20032;-83
2023/09/30 09:48:54;;;;;;;0.22;0.22;;;20.10;99.90;;;;;;5084983;28;20497;-79
2023/09/30 09:51:22;;;;;;;1.42;1.33;;;20.20;99.90;;;;;;5084196;28;20024;-75
2023/09/30 09:53:50;;;;;;;0.00;0.00;;;20.30;99.90;;;;;;5065940;28;20572;-78
2023/09/30 09:56:16;;;;;;;1.38;1.30;;;20.50;99.90;;;;;;5084980;28;20020;-79
2023/09/30 09:58:43;;;;;;;0.32;0.30;;;20.50;99.90;;;;;;5062983;28;20043;-77
2023/09/30 10:01:10;;;;;;;0.00;0.00;;;20.60;99.90;;;;;;5045792;28;20073;-77
2023/09/30 10:03:39;;;;;;;0.10;0.10;;;20.70;99.90;;;;;;5047685;28;20396;-76
2023/09/30 10:06:06;;;;;;;0.10;0.10;;;20.70;99.90;;;;;;5082759;28;20016;-76
2023/09/30 10:08:44;;;;;;;0.10;0.10;;;20.70;99.90;;;;;;5082390;28;20036;-77
2023/09/30 10:11:20;;;;;;;0.17;0.17;;;20.90;99.90;;;;;;5077953;28;20024;-77
2023/09/30 10:13:57;;;;;;;1.65;1.55;;;21.00;99.90;;;;;;5065272;28;20316;-80
2023/09/30 10:16:35;;;;;;;0.22;0.22;;;21.30;99.90;;;;;;5065272;28;20081;-75
2023/09/30 10:19:14;;;;;;;0.10;0.10;;;21.50;99.90;;;;;;5084092;28;20308;-76
2023/09/30 10:22:00;;;;;;;0.03;0.03;;;21.50;99.90;;;;;;5082607;28;20020;-79
2023/09/30 10:24:27;;;;;;;0.10;0.10;;;21.40;99.90;;;;;;5083037;28;20113;-78
2023/09/30 10:27:39;;;;;;;0.55;0.55;;;21.50;99.90;;;;;;5082444;28;20027;-76
2023/09/30 10:30:16;;;;;;;0.10;0.10;;;21.60;99.90;;;;;;5082681;28;20163;-77
2023/09/30 10:32:51;;;;;;;0.43;0.43;;;21.70;99.90;;;;;;5082973;28;20045;-76
2023/09/30 10:35:19;;;;;;;0.00;0.00;;;21.80;99.90;;;;;;5063850;28;20021;-75
2023/09/30 10:37:45;;;;;;;0.00;0.00;;;22.10;99.90;;;;;;5082380;28;20016;-80
2023/09/30 10:40:41;;;;;;;0.10;0.10;;;22.30;99.90;;;;;;5081621;28;20078;-76
2023/09/30 10:43:33;;;;;;;0.20;0.20;;;22.80;99.80;;;;;;5018073;28;20029;-76
2023/09/30 10:46:01;;;;;;;0.43;0.20;;;22.60;98.90;;;;;;5002066;28;20047;-76
2023/09/30 10:48:34;;;;;;;3.70;0.68;;;23.00;99.40;;;;;;5018260;28;20140;-77
2023/09/30 10:51:21;;;;;;;0.22;0.22;;;22.90;99.30;;;;;;5002120;28;20018;-76
2023/09/30 10:53:51;;;;;;;0.10;0.10;;;23.80;99.90;;;;;;5018060;28;20670;-77
2023/09/30 10:56:20;;;;;;;0.00;0.00;;;23.40;98.70;;;;;;5017392;28;20674;-77
2023/09/30 10:58:51;;;;;;;0.28;0.28;;;23.80;98.00;;;;;;5017841;28;20034;-76
2023/09/30 11:01:18;;;;;;;0.10;0.10;;;24.00;97.80;;;;;;5018258;28;20037;-76
2023/09/30 11:03:45;;;;;;;0.00;0.00;;;24.00;97.20;;;;;;5018554;28;20025;-76
2023/09/30 11:06:20;;;;;;;0.32;0.32;;;24.40;96.80;;;;;;5018486;28;20076;-79
2023/09/30 11:08:59;;;;;;;0.03;0.03;;;22.20;95.40;;;;;;5018977;28;20400;-78
2023/09/30 11:11:54;;;;;;;0.40;0.20;;;24.80;95.40;;;;;;5020163;28;20026;-76
2023/09/30 11:14:26;;;;;;;1.17;0.68;;;25.00;95.20;;;;;;5017874;28;20042;-77
2023/09/30 11:16:54;;;;;;;3.13;2.92;;;25.20;95.10;;;;;;5002555;28;20056;-77
2023/09/30 11:19:21;;;;;;;0.00;0.00;;;25.00;94.60;;;;;;5045209;28;20095;-76
2023/09/30 11:21:58;;;;;;;0.77;0.73;;;25.70;94.40;;;;;;5082512;28;20016;-82
2023/09/30 11:24:25;;;;;;;1.88;1.17;;;25.50;94.00;;;;;;5078431;28;20016;-80
2023/09/30 11:26:57;;;;;;;0.45;0.40;;;25.90;93.80;;;;;;5080252;28;20430;-76
2023/09/30 11:29:24;;;;;;;0.10;0.10;;;26.10;92.80;;;;;;5080110;28;20067;-82
2023/09/30 11:31:53;;;;;;;0.60;0.60;;;25.80;92.10;;;;;;5081666;28;20389;-76
2023/09/30 11:34:19;;;;;;;0.57;0.57;;;25.70;91.80;;;;;;5085207;28;20089;-77
2023/09/30 11:36:52;;;;;;;0.45;0.45;;;25.90;91.50;;;;;;5067089;28;20265;-84
2023/09/30 11:39:27;;;;;;;0.40;0.40;;;25.70;91.40;;;;;;5082623;28;20213;-79
2023/09/30 11:41:55;;;;;;;0.10;0.10;;;25.40;92.00;;;;;;5063942;28;20537;-77
2023/09/30 11:44:21;;;;;;;2.72;2.17;;;25.30;92.10;;;;;;5083779;28;20119;-76
2023/09/30 11:47:04;;;;;;;1.10;1.08;;;25.30;92.40;;;;;;5082536;28;20024;-76
2023/09/30 11:49:39;;;;;;;0.20;0.20;;;25.10;92.50;;;;;;5065496;28;20398;-77
2023/09/30 11:52:08;;;;;;;1.13;0.90;;;24.70;93.70;;;;;;5084179;28;20090;-76
2023/09/30 11:54:43;;;;;;;0.30;0.28;;;24.50;93.90;;;;;;5081954;28;20085;-77
2023/09/30 11:57:18;;;;;;;0.43;0.43;;;24.30;94.50;;;;;;5083206;28;20030;-86
2023/09/30 11:59:48;;;;;;;0.25;0.25;;;24.40;94.20;;;;;;5068308;28;20552;-77
2023/09/30 12:02:16;;;;;;;0.00;0.00;;;25.00;94.20;;;;;;5085743;28;20026;-78
2023/09/30 12:04:43;;;;;;;0.03;0.03;;;25.50;94.10;;;;;;5067141;28;20108;-82
2023/09/30 12:07:09;;;;;;;2.58;2.25;;;25.80;92.30;;;;;;5069138;28;20292;-77
2023/09/30 12:09:37;;;;;;;0.10;0.10;;;26.00;91.50;;;;;;5070124;28;20093;-76
2023/09/30 12:12:04;;;;;;;1.13;0.85;;;26.10;91.30;;;;;;5067928;28;20012;-80
2023/09/30 12:14:31;;;;;;;0.15;0.15;;;26.30;91.50;;;;;;5084758;28;20685;-76
2023/09/30 12:16:57;;;;;;;0.00;0.00;;;26.60;91.00;;;;;;5049069;28;20109;-76
2023/09/30 12:19:26;;;;;;;0.52;0.52;;;26.80;91.20;;;;;;5084007;28;20220;-76
2023/09/30 12:21:53;;;;;;;0.25;0.25;;;28.00;90.50;;;;;;5083754;28;20130;-77
2023/09/30 12:24:21;;;;;;;0.55;0.40;;;27.20;90.30;;;;;;5084558;28;20172;-78
2023/09/30 12:26:48;;;;;;;1.17;0.63;;;27.60;88.90;;;;;;5065992;28;20020;-83
2023/09/30 12:29:18;;;;;;;0.28;0.28;;;28.10;88.50;;;;;;5083761;28;20043;-76
2023/09/30 12:31:49;;;;;;;0.15;0.15;;;28.30;85.80;;;;;;5084896;28;20023;-79
2023/09/30 12:34:15;;;;;;;0.00;0.00;;;28.30;85.20;;;;;;5065937;28;20481;-76
2023/09/30 12:36:42;;;;;;;0.82;0.82;;;28.60;83.90;;;;;;5083951;28;20522;-76
2023/09/30 12:39:12;;;;;;;0.10;0.10;;;28.50;82.50;;;;;;5084272;28;20577;-76
2023/09/30 12:41:40;;;;;;;1.85;1.02;;;28.40;81.70;;;;;;5066692;28;20020;-78
2023/09/30 12:44:06;;;;;;;0.68;0.68;;;28.60;80.50;;;;;;5084025;28;20032;-75
2023/09/30 12:46:36;;;;;;;1.40;1.02;;;29.00;79.70;;;;;;5066125;28;20024;-78
2023/09/30 12:49:07;;;;;;;0.30;0.30;;;29.00;78.70;;;;;;5082528;28;20493;-76
2023/09/30 12:51:34;;;;;;;18.25;3.20;;;28.90;76.70;;;;;;5082903;28;20076;-76
2023/09/30 12:54:01;;;;;;;0.55;0.22;;;28.60;78.10;;;;;;5064859;28;20555;-76
2023/09/30 12:56:30;;;;;;;0.00;0.00;;;28.60;77.10;;;;;;5065581;28;20016;-80
2023/09/30 12:58:57;;;;;;;0.00;0.00;;;28.90;76.50;;;;;;5083504;28;20039;-79
2023/09/30 13:01:23;;;;;;;0.68;0.68;;;29.20;77.20;;;;;;5083899;28;20012;-75